Time;durP1;ratioP1;P1;durP2;ratioP2;P2;SDS_P1;SDS_P2;PMS_P1;PMS_P2;Temp;Humidity;BMP_temperature;BMP_pressure;BME280_temperature;BME280_humidity;BME280_pressure;Samples;Min_cycle;Max_cycle;Signal;HPM_P1;HPM_P2
2023/12/23 00:02:24;;;;;;;0.57;0.13;;;;;;;5.95;80.20;99160.44;5021160;27;98774;-76
2023/12/23 00:04:51;;;;;;;0.47;0.20;;;;;;;5.94;81.02;99177.94;5030696;27;96900;-76
2023/12/23 00:07:19;;;;;;;1.50;0.30;;;;;;;5.72;80.79;99187.53;5025262;27;97237;-76
2023/12/23 00:09:45;;;;;;;0.80;0.20;;;;;;;5.73;81.47;99186.63;5025486;27;97456;-75
2023/12/23 00:12:11;;;;;;;0.73;0.15;;;;;;;5.95;80.69;99187.50;5018029;27;99217;-76
2023/12/23 00:14:38;;;;;;;0.55;0.10;;;;;;;5.55;82.14;99196.09;5027054;27;97238;-76
2023/12/23 00:17:05;;;;;;;1.75;0.30;;;;;;;5.47;82.39;99195.53;5015168;27;96813;-75
2023/12/23 00:19:31;;;;;;;0.28;0.10;;;;;;;5.34;84.01;99201.31;5028095;27;99178;-76
2023/12/23 00:21:58;;;;;;;0.17;0.10;;;;;;;5.65;82.60;99204.41;5017118;27;99257;-75
2023/12/23 00:24:29;;;;;;;1.83;0.30;;;;;;;5.92;81.07;99192.84;5031130;27;96901;-76
2023/12/23 00:26:57;;;;;;;1.95;0.17;;;;;;;6.17;79.96;99202.34;5017501;27;96738;-76
2023/12/23 00:29:23;;;;;;;1.48;0.10;;;;;;;6.39;78.97;99208.38;5026288;27;98967;-74
2023/12/23 00:31:50;;;;;;;0.43;0.10;;;;;;;6.47;78.67;99208.91;5029478;27;98868;-76
2023/12/23 00:34:16;;;;;;;2.25;0.20;;;;;;;6.57;78.09;99227.72;5024894;27;98094;-77
2023/12/23 00:36:43;;;;;;;1.30;0.10;;;;;;;6.69;77.90;99227.22;5023562;27;99860;-76
2023/12/23 00:39:10;;;;;;;1.48;0.20;;;;;;;6.29;78.39;99213.19;5029070;27;99890;-77
2023/12/23 00:41:37;;;;;;;0.70;0.10;;;;;;;4.89;84.76;99222.22;5030108;27;97805;-77
2023/12/23 00:44:03;;;;;;;1.23;0.40;;;;;;;4.63;89.60;99231.00;5029988;27;97558;-76
2023/12/23 00:46:30;;;;;;;2.45;0.30;;;;;;;5.03;87.84;99241.75;5030159;27;96743;-77
2023/12/23 00:48:56;;;;;;;1.52;0.25;;;;;;;5.37;85.80;99251.81;5027604;27;98999;-76
2023/12/23 00:51:22;;;;;;;0.70;0.20;;;;;;;5.69;84.16;99270.69;5021851;27;102200;-77
2023/12/23 00:53:49;;;;;;;0.77;0.22;;;;;;;6.11;81.97;99266.38;5029407;27;97317;-77
2023/12/23 00:56:20;;;;;;;1.95;0.40;;;;;;;6.22;80.77;99265.94;5023759;27;97919;-76
2023/12/23 00:58:46;;;;;;;1.20;0.20;;;;;;;6.35;79.51;99283.75;5027522;27;97595;-76
2023/12/23 01:01:13;;;;;;;1.13;0.30;;;;;;;6.64;78.65;99287.75;5027856;27;99384;-76
2023/12/23 01:03:39;;;;;;;2.72;0.55;;;;;;;6.74;77.71;99299.59;5026752;27;97288;-76
2023/12/23 01:06:06;;;;;;;1.95;0.70;;;;;;;6.50;78.31;99307.66;5020172;27;96756;-75
2023/12/23 01:08:32;;;;;;;2.67;0.50;;;;;;;6.59;78.16;99318.59;5025670;27;100550;-76
2023/12/23 01:10:59;;;;;;;4.13;0.50;;;;;;;6.52;78.08;99329.41;5024658;27;98995;-76
2023/12/23 01:13:27;;;;;;;3.15;0.60;;;;;;;6.16;79.26;99332.63;5025402;27;97050;-75
2023/12/23 01:15:54;;;;;;;3.40;0.40;;;;;;;5.66;82.26;99334.53;5030579;27;97280;-75
2023/12/23 01:18:20;;;;;;;5.32;0.47;;;;;;;5.79;81.43;99335.78;5019824;27;99233;-75
2023/12/23 01:20:46;;;;;;;1.80;0.30;;;;;;;5.77;81.26;99358.59;5021922;27;101279;-76
2023/12/23 01:23:13;;;;;;;4.40;0.50;;;;;;;6.05;79.41;99352.31;5024175;27;96750;-75
2023/12/23 01:25:40;;;;;;;1.77;0.40;;;;;;;6.42;78.47;99376.19;5012902;27;97645;-75
2023/12/23 01:28:06;;;;;;;5.90;0.60;;;;;;;6.50;77.51;99381.13;5020951;27;98871;-75
2023/12/23 01:30:34;;;;;;;5.00;0.50;;;;;;;6.57;76.61;99388.66;5023375;27;98812;-78
2023/12/23 01:33:00;;;;;;;6.30;0.73;;;;;;;6.46;75.62;99388.25;5022401;27;96799;-78
2023/12/23 01:35:27;;;;;;;3.50;0.45;;;;;;;6.51;75.13;99381.03;5027118;27;96707;-78
2023/12/23 01:37:53;;;;;;;4.15;0.40;;;;;;;6.61;74.59;99406.00;5022677;27;98826;-77
2023/12/23 01:40:20;;;;;;;3.53;0.50;;;;;;;6.63;74.81;99417.28;5021249;27;98851;-77
2023/12/23 01:42:49;;;;;;;3.13;0.52;;;;;;;6.79;74.06;99423.63;5026510;27;100393;-77
2023/12/23 01:45:15;;;;;;;7.13;0.63;;;;;;;6.63;73.50;99416.47;5021930;27;97565;-77
2023/12/23 01:47:47;;;;;;;5.38;0.45;;;;;;;6.73;73.48;99429.13;5030164;27;99130;-77
2023/12/23 01:50:14;;;;;;;3.97;0.43;;;;;;;6.37;73.83;99431.44;5022961;27;97649;-77
2023/12/23 01:52:41;;;;;;;4.47;0.47;;;;;;;6.54;74.24;99443.91;5027670;27;96685;-76
2023/12/23 01:55:09;;;;;;;2.80;0.32;;;;;;;6.67;72.60;99442.50;5025773;27;98644;-77
2023/12/23 01:57:36;;;;;;;2.65;0.30;;;;;;;6.64;72.53;99455.75;5014465;27;98998;-75
2023/12/23 02:00:03;;;;;;;5.68;0.55;;;;;;;6.75;72.76;99460.59;5021747;27;101646;-76
2023/12/23 02:02:30;;;;;;;2.65;0.35;;;;;;;6.53;72.28;99467.59;5024370;27;96780;-76
2023/12/23 02:04:58;;;;;;;2.92;0.30;;;;;;;6.64;72.48;99470.63;5019573;27;97199;-76
2023/12/23 02:07:25;;;;;;;4.22;0.55;;;;;;;6.50;73.05;99457.22;5018721;27;98678;-76
2023/12/23 02:09:52;;;;;;;3.95;0.50;;;;;;;6.69;71.96;99469.56;5021410;27;99036;-79
2023/12/23 02:12:26;;;;;;;3.60;0.40;;;;;;;6.62;71.77;99475.13;5027481;27;97231;-78
2023/12/23 02:15:03;;;;;;;3.65;0.57;;;;;;;6.60;72.10;99480.41;5021335;27;97222;-77
2023/12/23 02:17:29;;;;;;;7.68;0.45;;;;;;;6.69;71.79;99479.22;5024599;27;101389;-78
2023/12/23 02:19:55;;;;;;;3.45;0.65;;;;;;;6.30;72.74;99486.88;5027999;27;98871;-79
2023/12/23 02:22:23;;;;;;;5.10;0.80;;;;;;;6.40;72.91;99496.94;5021192;27;96784;-78
2023/12/23 02:24:49;;;;;;;1.80;0.32;;;;;;;6.16;73.29;99490.00;5028669;27;96903;-78
2023/12/23 02:27:20;;;;;;;4.15;0.47;;;;;;;6.08;73.60;99480.69;5020646;27;102011;-79
2023/12/23 02:29:47;;;;;;;1.80;0.50;;;;;;;5.83;74.67;99492.06;5019314;27;98760;-79
2023/12/23 02:32:15;;;;;;;8.30;0.70;;;;;;;6.07;73.97;99498.19;5020780;27;96901;-78
2023/12/23 02:34:42;;;;;;;3.70;0.60;;;;;;;6.03;73.78;99508.88;5016662;27;97168;-80
2023/12/23 02:37:08;;;;;;;2.30;0.30;;;;;;;6.05;73.57;99512.25;5027800;27;101900;-78
2023/12/23 02:39:36;;;;;;;3.85;0.50;;;;;;;6.05;73.71;99509.66;5028513;27;99156;-79
2023/12/23 02:42:02;;;;;;;3.97;0.50;;;;;;;5.90;72.99;99509.31;5018274;27;97238;-78
2023/12/23 02:44:29;;;;;;;4.15;0.40;;;;;;;5.81;72.91;99520.09;5022974;27;97087;-78
2023/12/23 02:46:55;;;;;;;3.40;0.38;;;;;;;5.88;71.90;99511.13;5023891;27;102067;-79
2023/12/23 02:49:22;;;;;;;4.53;0.47;;;;;;;6.18;70.90;99508.28;5028033;27;99270;-78
2023/12/23 02:51:48;;;;;;;2.55;0.40;;;;;;;6.05;71.63;99533.25;5022679;27;96693;-78
2023/12/23 02:54:14;;;;;;;1.25;0.17;;;;;;;5.35;72.90;99536.53;5026462;27;96773;-78
2023/12/23 02:56:42;;;;;;;5.40;0.77;;;;;;;5.71;72.65;99541.44;5026451;27;99305;-78
2023/12/23 02:59:08;;;;;;;3.28;0.57;;;;;;;5.65;72.42;99554.72;5025776;27;98934;-78
2023/12/23 03:01:35;;;;;;;1.80;0.30;;;;;;;5.70;72.18;99548.44;5027494;27;97339;-75
2023/12/23 03:04:01;;;;;;;3.78;0.40;;;;;;;5.81;71.58;99550.69;5030806;27;97097;-73
2023/12/23 03:06:27;;;;;;;3.92;0.50;;;;;;;6.02;70.59;99549.09;5031521;27;98997;-74
2023/12/23 03:08:54;;;;;;;3.40;0.30;;;;;;;5.86;71.08;99556.63;5032415;27;97736;-74
2023/12/23 03:11:19;;;;;;;2.90;0.70;;;;;;;5.83;71.69;99570.72;5032352;27;96613;-75
2023/12/23 03:13:47;;;;;;;;;;;;;;;5.82;70.61;99568.13;5029093;27;96746;-73
2023/12/23 03:16:17;;;;;;;4.57;0.45;;;;;;;5.79;70.37;99568.22;5028936;27;99317;-74
2023/12/23 03:18:44;;;;;;;1.67;0.30;;;;;;;5.73;70.94;99558.81;5024072;27;99379;-74
2023/12/23 03:21:10;;;;;;;3.30;0.40;;;;;;;5.87;70.46;99567.09;5031377;27;97243;-75
2023/12/23 03:23:37;;;;;;;2.28;1.48;;;;;;;6.08;69.58;99575.97;5032756;27;96765;-76
2023/12/23 03:26:03;;;;;;;2.65;0.32;;;;;;;5.93;70.22;99579.97;5031979;27;101733;-74
2023/12/23 03:28:30;;;;;;;4.30;0.47;;;;;;;6.29;68.77;99574.34;5032794;27;97907;-74
2023/12/23 03:30:57;;;;;;;1.75;0.47;;;;;;;5.77;70.36;99585.78;5027444;27;96783;-74
2023/12/23 03:33:24;;;;;;;1.30;0.30;;;;;;;5.77;70.62;99585.78;5021566;27;97204;-75
2023/12/23 03:35:50;;;;;;;4.25;0.40;;;;;;;5.63;71.78;99596.75;5030326;27;98006;-75
2023/12/23 03:38:17;;;;;;;2.33;0.35;;;;;;;5.56;70.68;99603.94;5030828;27;97785;-75
2023/12/23 03:40:43;;;;;;;4.28;0.40;;;;;;;5.55;71.07;99617.09;5032181;27;97121;-76
2023/12/23 03:43:10;;;;;;;4.53;0.50;;;;;;;5.98;69.76;99616.53;5030062;27;96903;-75
2023/12/23 03:45:38;;;;;;;4.05;0.50;;;;;;;5.90;68.78;99616.81;5030687;27;99036;-75
2023/12/23 03:48:06;;;;;;;2.42;0.32;;;;;;;5.52;69.57;99623.28;5028381;27;98379;-75
2023/12/23 03:50:33;;;;;;;4.38;0.70;;;;;;;5.52;70.40;99618.03;5025363;27;97106;-75
2023/12/23 03:52:59;;;;;;;3.85;0.68;;;;;;;5.42;71.26;99629.75;5030261;27;97015;-76
2023/12/23 03:55:31;;;;;;;5.95;0.73;;;;;;;5.61;69.42;99622.13;5021669;27;98875;-76
2023/12/23 03:57:58;;;;;;;4.60;0.80;;;;;;;5.56;70.47;99618.81;5024426;27;99129;-75
2023/12/23 04:00:25;;;;;;;6.18;1.08;;;;;;;5.21;70.91;99612.06;5025597;27;96736;-77
2023/12/23 04:02:51;;;;;;;5.13;0.50;;;;;;;4.89;73.56;99615.69;5028867;27;96850;-76
2023/12/23 04:05:19;;;;;;;5.47;0.50;;;;;;;4.39;75.68;99619.81;5028041;27;99507;-76
2023/12/23 04:07:47;;;;;;;5.00;0.68;;;;;;;4.70;75.24;99625.00;5038379;27;98773;-75
2023/12/23 04:10:14;;;;;;;4.28;0.80;;;;;;;4.43;77.10;99626.66;5028362;27;96869;-76
2023/12/23 04:12:41;;;;;;;9.45;2.55;;;;;;;4.75;75.04;99620.47;5025641;27;96743;-77
2023/12/23 04:15:08;;;;;;;10.48;0.95;;;;;;;4.98;73.91;99625.03;5019621;27;98728;-76
2023/12/23 04:17:35;;;;;;;7.30;0.90;;;;;;;4.87;75.51;99625.34;5032890;27;99251;-75
2023/12/23 04:20:01;;;;;;;7.53;1.10;;;;;;;4.97;74.08;99624.19;5020736;27;96824;-76
2023/12/23 04:22:29;;;;;;;7.97;1.25;;;;;;;4.61;74.43;99633.09;5018187;27;97325;-77
2023/12/23 04:24:55;;;;;;;10.85;1.15;;;;;;;4.61;75.97;99639.19;5031115;27;98848;-76
2023/12/23 04:27:21;;;;;;;7.63;0.93;;;;;;;5.08;73.88;99640.41;5027750;27;98788;-76
2023/12/23 04:29:48;;;;;;;4.13;0.63;;;;;;;4.86;73.55;99636.72;5032205;27;97926;-77
2023/12/23 04:32:14;;;;;;;6.32;0.75;;;;;;;4.44;74.76;99643.22;5031379;27;97183;-77
2023/12/23 04:34:41;;;;;;;9.77;1.00;;;;;;;4.60;76.19;99639.25;5031830;28;99581;-76
2023/12/23 04:37:07;;;;;;;2.05;0.57;;;;;;;4.57;73.97;99634.97;5029243;27;98743;-76
2023/12/23 04:39:35;;;;;;;7.63;0.88;;;;;;;4.48;74.87;99644.81;5031917;27;96802;-76
2023/12/23 04:42:01;;;;;;;10.48;0.77;;;;;;;4.74;73.80;99643.19;5028498;27;99911;-77
2023/12/23 04:44:28;;;;;;;11.23;1.05;;;;;;;4.71;73.92;99645.91;5020060;27;101243;-76
2023/12/23 04:46:55;;;;;;;7.38;1.10;;;;;;;4.54;74.04;99637.66;5023330;27;98951;-76
2023/12/23 04:49:21;;;;;;;5.45;0.80;;;;;;;4.57;74.15;99642.81;5027507;27;96838;-76
2023/12/23 04:51:48;;;;;;;8.95;1.40;;;;;;;4.91;72.84;99629.59;5030167;27;96957;-76
2023/12/23 04:54:14;;;;;;;9.23;1.17;;;;;;;4.67;73.33;99635.53;5030939;27;97739;-76
2023/12/23 04:56:42;;;;;;;6.93;0.98;;;;;;;4.44;74.07;99637.97;5027493;27;99335;-76
2023/12/23 04:59:09;;;;;;;8.68;1.42;;;;;;;4.44;74.12;99624.91;5030048;27;97445;-76
2023/12/23 05:01:35;;;;;;;13.57;1.48;;;;;;;4.57;74.50;99618.41;5028052;27;96749;-76
2023/12/23 05:04:01;;;;;;;16.70;1.52;;;;;;;4.76;73.12;99616.97;5031713;27;98957;-76
2023/12/23 05:06:28;;;;;;;10.45;1.35;;;;;;;5.00;73.20;99629.31;5022734;27;99128;-76
2023/12/23 05:08:54;;;;;;;12.13;1.75;;;;;;;4.79;74.68;99622.97;5024404;27;96820;-76
2023/12/23 05:11:21;;;;;;;12.18;1.60;;;;;;;4.97;73.80;99632.03;5026687;27;96796;-76
2023/12/23 05:13:48;;;;;;;14.57;1.60;;;;;;;4.72;75.53;99620.59;5023950;27;101071;-76
2023/12/23 05:16:15;;;;;;;9.00;1.15;;;;;;;4.22;77.28;99627.25;5026196;27;98279;-76
2023/12/23 05:18:41;;;;;;;11.75;2.00;;;;;;;4.56;77.95;99622.78;5020267;27;96871;-76
2023/12/23 05:21:07;;;;;;;9.02;1.77;;;;;;;4.38;78.15;99620.69;5025875;27;97259;-76
2023/12/23 05:23:34;;;;;;;27.58;3.55;;;;;;;4.26;79.70;99631.50;5027786;27;101883;-77
2023/12/23 05:26:00;;;;;;;14.50;1.67;;;;;;;4.57;78.90;99624.50;5018454;27;99220;-76
2023/12/23 05:28:26;;;;;;;7.20;1.05;;;;;;;4.73;78.54;99615.28;5030067;27;96701;-76
2023/12/23 05:30:54;;;;;;;12.45;1.27;;;;;;;5.14;77.34;99616.66;5030106;27;97439;-76
2023/12/23 05:33:24;;;;;;;6.95;1.50;;;;;;;4.61;77.96;99622.66;5025506;27;98100;-75
2023/12/23 05:35:50;;;;;;;4.45;1.15;;;;;;;4.60;78.95;99629.63;5029765;27;99410;-77
2023/12/23 05:38:16;;;;;;;12.45;1.35;;;;;;;4.54;80.55;99621.09;5015731;27;96766;-77
2023/12/23 05:40:43;;;;;;;9.48;1.00;;;;;;;4.33;81.63;99612.97;5021226;27;96747;-78
2023/12/23 05:43:09;;;;;;;16.52;1.67;;;;;;;4.30;82.42;99622.66;5027958;27;98859;-77
2023/12/23 05:45:36;;;;;;;12.45;1.13;;;;;;;4.21;82.97;99613.31;5023127;27;98895;-77
2023/12/23 05:48:04;;;;;;;14.13;1.15;;;;;;;4.41;82.21;99620.59;5030457;27;97632;-77
2023/12/23 05:50:31;;;;;;;8.82;1.02;;;;;;;4.14;83.83;99624.84;5025220;27;96763;-77
2023/12/23 05:52:57;;;;;;;16.45;1.23;;;;;;;4.11;84.34;99618.84;5024625;27;98868;-77
2023/12/23 05:55:24;;;;;;;13.43;1.30;;;;;;;4.07;84.73;99617.22;5026621;27;98860;-77
2023/12/23 05:57:50;;;;;;;14.23;2.03;;;;;;;4.34;84.24;99621.66;5024318;27;96779;-77
2023/12/23 06:00:19;;;;;;;10.77;1.80;;;;;;;4.34;84.67;99626.91;5022885;27;98147;-77
2023/12/23 06:02:46;;;;;;;17.02;1.40;;;;;;;4.77;83.54;99606.47;5022859;27;99052;-75
2023/12/23 06:05:13;;;;;;;14.60;1.15;;;;;;;5.13;80.89;99603.59;5028105;27;98843;-75
2023/12/23 06:07:40;;;;;;;14.50;1.52;;;;;;;4.92;82.12;99593.81;5028710;27;96741;-75
2023/12/23 06:10:08;;;;;;;12.63;1.10;;;;;;;5.02;83.13;99603.94;5028624;27;97651;-75
2023/12/23 06:12:34;;;;;;;13.25;1.95;;;;;;;4.75;83.05;99592.56;5020878;27;97673;-74
2023/12/23 06:15:00;;;;;;;10.98;1.35;;;;;;;4.29;86.38;99595.66;5016988;27;98772;-75
2023/12/23 06:17:27;;;;;;;4.00;0.57;;;;;;;4.30;87.00;99586.06;5024784;27;97000;-75
2023/12/23 06:19:53;;;;;;;11.57;1.20;;;;;;;4.86;85.71;99579.13;5022524;27;96788;-74
2023/12/23 06:22:22;;;;;;;13.02;1.10;;;;;;;4.68;84.83;99569.22;5023311;27;98829;-75
2023/12/23 06:24:48;;;;;;;7.93;1.02;;;;;;;4.51;86.67;99567.13;5020510;27;99123;-75
2023/12/23 06:27:14;;;;;;;10.65;1.40;;;;;;;4.33;88.02;99568.50;5027168;27;97240;-75
2023/12/23 06:29:41;;;;;;;7.55;1.13;;;;;;;4.57;87.52;99568.69;5020113;27;97080;-75
2023/12/23 06:32:07;;;;;;;7.13;0.98;;;;;;;4.19;89.17;99564.59;5023872;27;98936;-75
2023/12/23 06:34:33;;;;;;;11.02;1.08;;;;;;;4.38;89.72;99571.88;5017943;27;98781;-76
2023/12/23 06:37:00;;;;;;;7.07;1.13;;;;;;;4.06;90.12;99568.44;5020841;27;97044;-75
2023/12/23 06:39:28;;;;;;;5.95;1.02;;;;;;;4.27;90.18;99560.84;5030745;27;96825;-77
2023/12/23 06:41:54;;;;;;;8.48;0.93;;;;;;;4.40;89.89;99575.28;5031114;27;97724;-78
2023/12/23 06:44:20;;;;;;;9.75;1.52;;;;;;;4.76;87.21;99572.47;5021644;27;100851;-78
2023/12/23 06:46:47;;;;;;;7.78;0.90;;;;;;;4.35;88.71;99550.16;5025908;27;96906;-78
2023/12/23 06:49:14;;;;;;;12.13;1.20;;;;;;;4.47;89.25;99564.63;5032368;27;97012;-77
2023/12/23 06:51:40;;;;;;;13.73;1.08;;;;;;;4.66;88.09;99571.06;5020166;27;99619;-76
2023/12/23 06:54:07;;;;;;;9.38;1.17;;;;;;;4.51;88.68;99564.50;5031159;27;97766;-76
2023/12/23 06:56:34;;;;;;;10.80;2.40;;;;;;;4.68;88.33;99564.84;5026201;27;97392;-76
2023/12/23 06:59:01;;;;;;;13.52;1.40;;;;;;;4.59;89.18;99574.75;5027457;27;96800;-77
2023/12/23 07:01:36;;;;;;;10.13;1.40;;;;;;;5.02;87.00;99564.69;5032101;27;99290;-76
2023/12/23 07:04:02;;;;;;;9.98;1.52;;;;;;;5.09;86.09;99565.34;5026761;27;98813;-76
2023/12/23 07:06:29;;;;;;;10.43;0.88;;;;;;;5.22;84.66;99559.66;5029478;27;99238;-76
2023/12/23 07:08:55;;;;;;;13.50;1.85;;;;;;;5.03;85.43;99571.63;5032257;27;96989;-76
2023/12/23 07:11:21;;;;;;;2.75;0.52;;;;;;;4.96;86.73;99572.72;5031267;27;98906;-75
2023/12/23 07:13:50;;;;;;;7.63;1.10;;;;;;;4.71;87.96;99575.25;5027860;27;101549;-76
2023/12/23 07:16:17;;;;;;;8.70;0.90;;;;;;;4.75;89.06;99570.75;5030159;27;97627;-78
2023/12/23 07:18:43;;;;;;;6.85;1.23;;;;;;;4.99;88.20;99558.69;5025206;27;97362;-79
2023/12/23 07:21:11;;;;;;;9.32;1.17;;;;;;;5.10;87.37;99557.44;5023346;27;98559;-79
2023/12/23 07:23:37;;;;;;;5.63;0.65;;;;;;;4.69;88.31;99556.09;5025111;27;97510;-77
2023/12/23 07:26:05;;;;;;;8.65;0.88;;;;;;;5.01;88.87;99556.88;5024983;27;97943;-77
2023/12/23 07:28:31;;;;;;;5.88;0.95;;;;;;;5.30;87.04;99554.19;5030893;27;97300;-78
2023/12/23 07:30:59;;;;;;;9.25;1.38;;;;;;;5.74;84.88;99549.19;5021982;27;99113;-76
2023/12/23 07:33:26;;;;;;;7.70;0.88;;;;;;;5.52;85.04;99542.06;5030983;27;101858;-76
2023/12/23 07:35:52;;;;;;;11.43;1.30;;;;;;;5.34;85.40;99534.81;5025004;27;97268;-76
2023/12/23 07:38:18;;;;;;;5.22;1.15;;;;;;;5.46;86.31;99542.25;5021847;27;96768;-75
2023/12/23 07:40:45;;;;;;;10.38;2.40;;;;;;;5.46;86.17;99550.13;5031820;27;97683;-75
2023/12/23 07:43:11;;;;;;;8.23;1.05;;;;;;;5.24;87.16;99541.28;5032480;27;98746;-76
2023/12/23 07:45:37;;;;;;;9.73;1.48;;;;;;;5.19;87.30;99528.31;5031308;28;96794;-76
2023/12/23 07:48:06;;;;;;;8.13;1.23;;;;;;;4.91;88.80;99532.75;5032366;27;97214;-77
2023/12/23 07:50:32;;;;;;;11.85;1.63;;;;;;;5.07;88.40;99528.72;5023166;27;99101;-77
2023/12/23 07:52:58;;;;;;;8.80;1.88;;;;;;;4.98;89.14;99536.91;5027689;27;97501;-78
2023/12/23 07:55:26;;;;;;;7.18;1.00;;;;;;;4.77;90.90;99534.94;5025590;27;97181;-77
2023/12/23 07:57:52;;;;;;;6.05;0.85;;;;;;;4.91;89.76;99530.13;5024503;27;97352;-76
2023/12/23 08:00:19;;;;;;;8.13;1.20;;;;;;;5.14;89.33;99526.75;5031921;27;99282;-77
2023/12/23 08:02:46;;;;;;;5.85;0.90;;;;;;;5.39;86.41;99526.78;5031010;27;98757;-76
2023/12/23 08:05:13;;;;;;;3.90;0.60;;;;;;;5.06;88.09;99519.16;5031275;27;97337;-77
2023/12/23 08:07:42;;;;;;;7.32;1.20;;;;;;;5.12;87.71;99525.97;5025390;27;97145;-75
2023/12/23 08:10:09;;;;;;;7.20;1.23;;;;;;;4.93;89.72;99520.44;5031949;27;101752;-76
2023/12/23 08:12:36;;;;;;;6.43;1.13;;;;;;;5.42;87.62;99531.94;5031759;27;99375;-76
2023/12/23 08:15:02;;;;;;;4.57;0.68;;;;;;;5.70;85.46;99531.88;5023560;27;97358;-75
2023/12/23 08:17:29;;;;;;;5.90;1.05;;;;;;;5.22;87.87;99536.09;5025461;27;97177;-76
2023/12/23 08:19:55;;;;;;;6.63;0.70;;;;;;;5.44;87.04;99530.13;5025981;27;98044;-79
2023/12/23 08:22:23;;;;;;;3.72;0.63;;;;;;;5.71;85.65;99533.59;5031233;27;99219;-78
2023/12/23 08:24:49;;;;;;;6.90;1.35;;;;;;;5.85;84.79;99541.78;5020602;27;97090;-79
2023/12/23 08:27:16;;;;;;;8.15;1.02;;;;;;;5.51;85.46;99529.84;5031794;27;97241;-78
2023/12/23 08:29:42;;;;;;;8.15;0.70;;;;;;;5.32;87.59;99543.63;5031625;27;98865;-78
2023/12/23 08:32:09;;;;;;;7.50;1.30;;;;;;;5.22;88.51;99545.72;5029742;27;97764;-78
2023/12/23 08:34:35;;;;;;;3.97;0.68;;;;;;;4.95;89.38;99542.22;5031162;27;96853;-78
2023/12/23 08:37:02;;;;;;;5.25;0.60;;;;;;;4.93;90.19;99541.41;5035142;27;97159;-78
2023/12/23 08:39:30;;;;;;;9.00;0.90;;;;;;;5.24;90.03;99548.28;5019164;27;102449;-78
2023/12/23 08:41:56;;;;;;;9.20;1.00;;;;;;;5.53;88.17;99546.38;5023635;27;99448;-78
2023/12/23 08:44:22;;;;;;;5.50;0.85;;;;;;;5.84;86.83;99540.09;5029308;27;97303;-78
2023/12/23 08:46:49;;;;;;;6.43;1.05;;;;;;;5.17;89.53;99535.38;5025852;27;99453;-77
2023/12/23 08:49:15;;;;;;;6.25;1.00;;;;;;;5.19;90.37;99540.56;5027399;27;98843;-78
2023/12/23 08:51:42;;;;;;;6.45;0.70;;;;;;;4.97;91.02;99535.19;5023736;27;98901;-79
2023/12/23 08:54:08;;;;;;;15.68;1.40;;;;;;;5.08;91.02;99537.44;5028943;27;97272;-77
2023/12/23 08:56:36;;;;;;;7.28;0.90;;;;;;;5.46;89.20;99547.50;5027633;27;98048;-77
2023/12/23 08:59:02;;;;;;;9.98;1.65;;;;;;;5.90;87.54;99559.13;5024055;27;98812;-78
2023/12/23 09:01:29;;;;;;;11.95;1.40;;;;;;;6.04;86.14;99548.13;5018551;27;100786;-79
2023/12/23 09:03:55;;;;;;;7.18;1.10;;;;;;;6.09;84.65;99554.09;5021646;27;97086;-78
2023/12/23 09:06:22;;;;;;;6.93;1.10;;;;;;;6.38;84.37;99555.63;5025810;27;97705;-78
2023/12/23 09:08:51;;;;;;;7.93;0.95;;;;;;;6.44;83.67;99555.38;5028659;27;99046;-77
2023/12/23 09:11:17;;;;;;;5.28;0.90;;;;;;;6.10;85.10;99549.69;5029247;27;99203;-78
2023/12/23 09:13:45;;;;;;;7.07;1.05;;;;;;;6.34;84.50;99551.41;5016428;27;96792;-78
2023/12/23 09:16:11;;;;;;;5.38;1.15;;;;;;;5.96;85.66;99556.28;5024680;27;96972;-77
2023/12/23 09:18:37;;;;;;;7.80;1.00;;;;;;;5.96;86.70;99558.91;5026157;27;98878;-78
2023/12/23 09:21:04;;;;;;;10.38;1.23;;;;;;;5.89;86.44;99560.03;5028393;27;98261;-76
2023/12/23 09:23:31;;;;;;;9.45;1.80;;;;;;;6.47;84.38;99552.66;5022907;27;96823;-76
2023/12/23 09:25:57;;;;;;;9.73;1.42;;;;;;;6.80;82.40;99553.16;5027571;27;101685;-78
2023/12/23 09:28:23;;;;;;;5.60;1.48;;;;;;;7.12;80.05;99550.09;5029997;27;99422;-77
2023/12/23 09:30:51;;;;;;;9.18;1.00;;;;;;;7.19;78.60;99554.19;5019268;27;98956;-76
2023/12/23 09:33:17;;;;;;;13.85;1.27;;;;;;;7.15;78.50;99544.69;5021113;27;96986;-78
2023/12/23 09:35:44;;;;;;;5.97;1.58;;;;;;;7.50;77.38;99548.50;5026712;27;96787;-76
2023/12/23 09:38:10;;;;;;;5.15;1.05;;;;;;;7.06;77.50;99552.13;5022646;27;97739;-76
2023/12/23 09:40:37;;;;;;;5.10;1.40;;;;;;;7.35;77.52;99559.66;5029173;27;100558;-77
2023/12/23 09:43:05;;;;;;;4.72;0.90;;;;;;;7.44;77.45;99569.81;5028411;27;97035;-77
2023/12/23 09:45:33;;;;;;;10.15;2.75;;;;;;;7.63;76.81;99558.50;5021411;27;96808;-77
2023/12/23 09:48:01;;;;;;;2.67;0.80;;;;;;;7.51;76.35;99559.88;5023096;27;99469;-76
2023/12/23 09:50:27;;;;;;;8.15;0.98;;;;;;;7.44;76.22;99563.69;5021486;27;98774;-76
2023/12/23 09:52:56;;;;;;;5.30;0.52;;;;;;;6.69;78.99;99553.56;5025508;27;96798;-76
2023/12/23 09:55:24;;;;;;;5.88;0.73;;;;;;;7.26;77.93;99567.94;5024932;27;98111;-77
2023/12/23 09:57:50;;;;;;;1.45;0.50;;;;;;;7.31;76.81;99565.97;5028839;27;99290;-76
2023/12/23 10:00:18;;;;;;;4.95;1.30;;;;;;;7.17;76.66;99566.53;5027268;27;97611;-77
2023/12/23 10:02:44;;;;;;;3.75;0.63;;;;;;;7.33;76.55;99561.50;5022577;27;97256;-78
2023/12/23 10:05:13;;;;;;;1.77;0.60;;;;;;;7.33;75.88;99564.13;5027321;27;97130;-79
2023/12/23 10:07:39;;;;;;;5.00;0.63;;;;;;;7.48;76.70;99566.13;5021932;27;98812;-79
2023/12/23 10:10:07;;;;;;;1.50;0.55;;;;;;;6.63;78.57;99571.31;5027068;27;98826;-77
2023/12/23 10:12:34;;;;;;;3.40;0.52;;;;;;;6.51;80.13;99563.88;5020276;27;96803;-77
2023/12/23 10:15:00;;;;;;;2.85;0.40;;;;;;;6.12;82.23;99560.97;5030688;27;97003;-77
2023/12/23 10:17:27;;;;;;;3.42;0.65;;;;;;;6.15;81.72;99561.72;5024498;27;99907;-77
2023/12/23 10:19:55;;;;;;;9.02;4.43;;;;;;;6.79;79.54;99559.31;5026261;27;99384;-77
2023/12/23 10:22:22;;;;;;;5.15;1.85;;;;;;;6.77;78.74;99558.50;5026310;28;97143;-77
2023/12/23 10:24:49;;;;;;;2.65;0.50;;;;;;;6.77;78.50;99553.25;5025579;27;96851;-77
2023/12/23 10:27:16;;;;;;;4.75;0.77;;;;;;;6.67;78.83;99562.41;5021068;27;98919;-77
2023/12/23 10:29:47;;;;;;;1.90;0.25;;;;;;;6.33;80.13;99561.03;5019418;27;98853;-75
2023/12/23 10:32:21;;;;;;;2.55;0.47;;;;;;;6.62;79.10;99562.59;5021502;27;96999;-76
2023/12/23 10:34:50;;;;;;;3.53;0.60;;;;;;;6.83;78.78;99557.44;5024852;27;98967;-76
2023/12/23 10:37:18;;;;;;;1.95;0.60;;;;;;;6.60;79.96;99553.91;5022613;27;98596;-75
2023/12/23 10:39:52;;;;;;;2.15;0.60;;;;;;;6.62;80.27;99553.84;5020005;27;98911;-76
2023/12/23 10:42:23;;;;;;;1.17;0.43;;;;;;;6.95;78.45;99554.31;5025053;27;96825;-76
2023/12/23 10:44:50;;;;;;;2.38;0.68;;;;;;;6.74;79.06;99556.00;5023241;27;97268;-75
2023/12/23 10:47:17;;;;;;;0.60;0.30;;;;;;;6.61;79.11;99550.38;5025995;27;99206;-76
2023/12/23 10:49:46;;;;;;;4.20;0.43;;;;;;;6.36;80.79;99554.84;5027653;27;99109;-76
2023/12/23 10:52:13;;;;;;;3.88;0.95;;;;;;;6.60;80.31;99548.66;5031913;27;96946;-77
2023/12/23 10:54:40;;;;;;;2.92;0.40;;;;;;;6.86;78.84;99554.66;5028556;27;96805;-77
2023/12/23 10:57:10;;;;;;;4.00;1.00;;;;;;;7.08;78.03;99551.16;5023125;27;99331;-77
2023/12/23 10:59:36;;;;;;;1.95;0.88;;;;;;;7.02;77.31;99556.63;5027693;27;99871;-77
2023/12/23 11:02:11;;;;;;;3.50;0.80;;;;;;;7.00;77.74;99555.00;5027772;27;97328;-76
2023/12/23 11:04:38;;;;;;;2.70;0.73;;;;;;;6.44;79.96;99552.75;5026942;27;97186;-76
2023/12/23 11:07:07;;;;;;;1.80;0.45;;;;;;;6.29;81.22;99563.84;5021891;27;99334;-76
2023/12/23 11:09:34;;;;;;;1.92;0.60;;;;;;;6.58;79.89;99560.13;5026491;27;98891;-72
2023/12/23 11:12:01;;;;;;;1.75;0.68;;;;;;;6.70;79.05;99557.88;5034848;27;96637;-73
2023/12/23 11:14:29;;;;;;;1.15;0.57;;;;;;;6.55;80.35;99566.34;5032038;27;97287;-72
2023/12/23 11:16:57;;;;;;;4.72;1.48;;;;;;;6.43;81.10;99568.59;5029605;27;98042;-72
2023/12/23 11:19:23;;;;;;;3.33;0.77;;;;;;;5.70;83.58;99572.03;5027514;27;99005;-72
2023/12/23 11:22:21;;;;;;;1.77;1.10;;;;;;;5.84;84.49;99576.81;5031044;27;97213;-72
2023/12/23 11:24:47;;;;;;;;;;;;;;;6.01;83.80;99587.59;5026295;27;97706;-71
2023/12/23 11:27:29;;;;;;;1.77;1.20;;;;;;;6.20;83.43;99586.00;5019823;27;97688;-71
2023/12/23 11:29:58;;;;;;;2.97;1.67;;;;;;;6.41;82.18;99579.13;5023595;27;99718;-71
2023/12/23 11:32:25;;;;;;;4.43;1.58;;;;;;;6.30;81.98;99594.44;5021911;27;96790;-72
2023/12/23 11:34:52;;;;;;;2.63;1.08;;;;;;;6.14;82.99;99583.63;5018034;27;96803;-72
2023/12/23 11:37:18;;;;;;;1.63;0.80;;;;;;;5.72;83.43;99572.81;5024754;27;99459;-71
2023/12/23 11:39:46;;;;;;;3.85;0.93;;;;;;;6.46;82.31;99581.56;5019876;27;98186;-71
2023/12/23 11:42:13;;;;;;;2.05;0.98;;;;;;;6.41;82.18;99584.38;5028140;28;98783;-72